sensor_id;sensor_type;location;lat;lon;timestamp;P1;durP1;ratioP1;P2;durP2;ratioP2
53263;SDS011;39153;52.680;6.172;2023-02-28T00:02:14;9.38;;;3.35;;
53263;SDS011;39153;52.680;6.172;2023-02-28T00:04:42;9.75;;;3.17;;
53263;SDS011;39153;52.680;6.172;2023-02-28T00:07:08;7.60;;;2.65;;
53263;SDS011;39153;52.680;6.172;2023-02-28T00:09:34;8.32;;;2.60;;
53263;SDS011;39153;52.680;6.172;2023-02-28T00:12:00;7.65;;;2.85;;
53263;SDS011;39153;52.680;6.172;2023-02-28T00:14:29;8.70;;;2.60;;
53263;SDS011;39153;52.680;6.172;2023-02-28T00:16:55;8.80;;;2.38;;
53263;SDS011;39153;52.680;6.172;2023-02-28T00:19:21;6.25;;;2.85;;
53263;SDS011;39153;52.680;6.172;2023-02-28T00:21:46;7.18;;;2.63;;
53263;SDS011;39153;52.680;6.172;2023-02-28T00:24:12;9.90;;;2.75;;
53263;SDS011;39153;52.680;6.172;2023-02-28T00:26:38;10.82;;;2.70;;
53263;SDS011;39153;52.680;6.172;2023-02-28T00:29:03;8.70;;;2.50;;
53263;SDS011;39153;52.680;6.172;2023-02-28T00:31:29;10.13;;;2.80;;
53263;SDS011;39153;52.680;6.172;2023-02-28T00:33:55;8.82;;;3.00;;
53263;SDS011;39153;52.680;6.172;2023-02-28T00:36:20;7.90;;;2.50;;
53263;SDS011;39153;52.680;6.172;2023-02-28T00:38:46;8.30;;;2.88;;
53263;SDS011;39153;52.680;6.172;2023-02-28T00:41:12;7.35;;;2.67;;
53263;SDS011;39153;52.680;6.172;2023-02-28T00:43:39;9.38;;;2.70;;
53263;SDS011;39153;52.680;6.172;2023-02-28T00:46:05;5.68;;;2.53;;
53263;SDS011;39153;52.680;6.172;2023-02-28T00:48:31;8.48;;;2.33;;
53263;SDS011;39153;52.680;6.172;2023-02-28T00:50:57;8.07;;;2.58;;
53263;SDS011;39153;52.680;6.172;2023-02-28T00:53:24;10.50;;;3.15;;
53263;SDS011;39153;52.680;6.172;2023-02-28T00:55:50;8.98;;;2.75;;
53263;SDS011;39153;52.680;6.172;2023-02-28T00:58:16;10.50;;;2.90;;
53263;SDS011;39153;52.680;6.172;2023-02-28T01:00:41;11.82;;;2.92;;
53263;SDS011;39153;52.680;6.172;2023-02-28T01:03:07;13.13;;;3.40;;
53263;SDS011;39153;52.680;6.172;2023-02-28T01:05:33;8.13;;;2.92;;
53263;SDS011;39153;52.680;6.172;2023-02-28T01:07:58;10.98;;;2.90;;
53263;SDS011;39153;52.680;6.172;2023-02-28T01:10:24;6.80;;;2.67;;
53263;SDS011;39153;52.680;6.172;2023-02-28T01:12:50;6.82;;;2.60;;
53263;SDS011;39153;52.680;6.172;2023-02-28T01:15:16;6.70;;;2.70;;
53263;SDS011;39153;52.680;6.172;2023-02-28T01:17:42;7.57;;;2.53;;
53263;SDS011;39153;52.680;6.172;2023-02-28T01:20:08;7.72;;;2.80;;
53263;SDS011;39153;52.680;6.172;2023-02-28T01:22:34;7.78;;;3.20;;
53263;SDS011;39153;52.680;6.172;2023-02-28T01:25:00;11.20;;;2.85;;
53263;SDS011;39153;52.680;6.172;2023-02-28T01:27:26;8.52;;;2.92;;
53263;SDS011;39153;52.680;6.172;2023-02-28T01:29:52;10.65;;;3.08;;
53263;SDS011;39153;52.680;6.172;2023-02-28T01:32:17;10.73;;;3.30;;
53263;SDS011;39153;52.680;6.172;2023-02-28T01:34:43;9.15;;;3.10;;
53263;SDS011;39153;52.680;6.172;2023-02-28T01:37:09;10.93;;;3.28;;
53263;SDS011;39153;52.680;6.172;2023-02-28T01:39:34;7.07;;;3.38;;
53263;SDS011;39153;52.680;6.172;2023-02-28T01:42:00;7.28;;;2.70;;
53263;SDS011;39153;52.680;6.172;2023-02-28T01:47:22;7.40;;;2.95;;
53263;SDS011;39153;52.680;6.172;2023-02-28T01:49:50;7.45;;;2.80;;
53263;SDS011;39153;52.680;6.172;2023-02-28T01:52:17;11.90;;;3.38;;
53263;SDS011;39153;52.680;6.172;2023-02-28T01:54:51;9.77;;;3.10;;
53263;SDS011;39153;52.680;6.172;2023-02-28T01:57:20;7.50;;;3.00;;
53263;SDS011;39153;52.680;6.172;2023-02-28T02:00:01;9.57;;;3.17;;
53263;SDS011;39153;52.680;6.172;2023-02-28T02:02:29;8.90;;;3.50;;
53263;SDS011;39153;52.680;6.172;2023-02-28T02:04:57;10.63;;;3.58;;
53263;SDS011;39153;52.680;6.172;2023-02-28T02:07:26;9.98;;;3.97;;
53263;SDS011;39153;52.680;6.172;2023-02-28T02:15:17;11.07;;;3.75;;
53263;SDS011;39153;52.680;6.172;2023-02-28T02:17:56;9.52;;;3.75;;
53263;SDS011;39153;52.680;6.172;2023-02-28T02:40:42;10.63;;;3.80;;
53263;SDS011;39153;52.680;6.172;2023-02-28T02:43:19;10.05;;;3.10;;
53263;SDS011;39153;52.680;6.172;2023-02-28T02:45:57;7.93;;;3.50;;
53263;SDS011;39153;52.680;6.172;2023-02-28T02:48:30;9.63;;;3.95;;
53263;SDS011;39153;52.680;6.172;2023-02-28T02:50:59;8.20;;;3.70;;
53263;SDS011;39153;52.680;6.172;2023-02-28T02:53:35;13.73;;;4.43;;
53263;SDS011;39153;52.680;6.172;2023-02-28T02:56:14;13.43;;;5.03;;
53263;SDS011;39153;52.680;6.172;2023-02-28T02:58:43;10.13;;;5.25;;
53263;SDS011;39153;52.680;6.172;2023-02-28T03:01:12;10.48;;;5.18;;
53263;SDS011;39153;52.680;6.172;2023-02-28T03:03:42;13.30;;;5.10;;
53263;SDS011;39153;52.680;6.172;2023-02-28T03:06:09;10.13;;;5.35;;
53263;SDS011;39153;52.680;6.172;2023-02-28T03:08:35;14.60;;;5.93;;
53263;SDS011;39153;52.680;6.172;2023-02-28T03:11:04;13.38;;;5.35;;
53263;SDS011;39153;52.680;6.172;2023-02-28T03:24:25;12.68;;;5.57;;
53263;SDS011;39153;52.680;6.172;2023-02-28T03:27:22;13.05;;;6.10;;
53263;SDS011;39153;52.680;6.172;2023-02-28T03:30:10;11.30;;;5.75;;
53263;SDS011;39153;52.680;6.172;2023-02-28T03:33:01;15.95;;;6.40;;
53263;SDS011;39153;52.680;6.172;2023-02-28T03:35:48;14.73;;;6.78;;
53263;SDS011;39153;52.680;6.172;2023-02-28T03:38:21;16.40;;;7.30;;
53263;SDS011;39153;52.680;6.172;2023-02-28T03:41:06;15.38;;;7.28;;
53263;SDS011;39153;52.680;6.172;2023-02-28T03:43:54;18.25;;;7.63;;
53263;SDS011;39153;52.680;6.172;2023-02-28T03:46:27;15.73;;;7.40;;
53263;SDS011;39153;52.680;6.172;2023-02-28T03:49:02;17.85;;;8.18;;
53263;SDS011;39153;52.680;6.172;2023-02-28T03:51:32;18.45;;;8.50;;
53263;SDS011;39153;52.680;6.172;2023-02-28T03:54:02;21.70;;;8.02;;
53263;SDS011;39153;52.680;6.172;2023-02-28T03:56:45;15.95;;;8.05;;
53263;SDS011;39153;52.680;6.172;2023-02-28T03:59:27;20.30;;;8.93;;
53263;SDS011;39153;52.680;6.172;2023-02-28T04:01:57;18.02;;;8.80;;
53263;SDS011;39153;52.680;6.172;2023-02-28T04:04:23;18.17;;;9.02;;
53263;SDS011;39153;52.680;6.172;2023-02-28T04:06:50;21.05;;;8.85;;
53263;SDS011;39153;52.680;6.172;2023-02-28T04:09:17;17.75;;;9.65;;
53263;SDS011;39153;52.680;6.172;2023-02-28T04:11:50;17.42;;;9.70;;
53263;SDS011;39153;52.680;6.172;2023-02-28T04:14:17;20.80;;;9.70;;
53263;SDS011;39153;52.680;6.172;2023-02-28T04:16:43;18.48;;;9.40;;
53263;SDS011;39153;52.680;6.172;2023-02-28T04:19:10;22.27;;;10.43;;
53263;SDS011;39153;52.680;6.172;2023-02-28T04:21:38;25.92;;;10.57;;
53263;SDS011;39153;52.680;6.172;2023-02-28T04:24:07;22.13;;;11.48;;
53263;SDS011;39153;52.680;6.172;2023-02-28T04:26:38;20.83;;;10.88;;
53263;SDS011;39153;52.680;6.172;2023-02-28T04:29:05;23.90;;;11.35;;
53263;SDS011;39153;52.680;6.172;2023-02-28T04:31:32;24.25;;;11.90;;
53263;SDS011;39153;52.680;6.172;2023-02-28T04:33:59;21.02;;;11.07;;
53263;SDS011;39153;52.680;6.172;2023-02-28T04:36:25;24.23;;;11.90;;
53263;SDS011;39153;52.680;6.172;2023-02-28T04:38:51;24.00;;;11.60;;
53263;SDS011;39153;52.680;6.172;2023-02-28T04:41:18;24.00;;;12.18;;
53263;SDS011;39153;52.680;6.172;2023-02-28T04:43:44;25.58;;;12.27;;
53263;SDS011;39153;52.680;6.172;2023-02-28T04:46:10;22.27;;;11.32;;
53263;SDS011;39153;52.680;6.172;2023-02-28T04:48:37;24.58;;;12.32;;
53263;SDS011;39153;52.680;6.172;2023-02-28T04:51:05;24.70;;;11.02;;
53263;SDS011;39153;52.680;6.172;2023-02-28T04:53:32;21.50;;;10.90;;
53263;SDS011;39153;52.680;6.172;2023-02-28T04:55:58;23.50;;;11.57;;
53263;SDS011;39153;52.680;6.172;2023-02-28T04:58:25;22.52;;;11.45;;
53263;SDS011;39153;52.680;6.172;2023-02-28T05:00:53;20.73;;;10.63;;
53263;SDS011;39153;52.680;6.172;2023-02-28T05:03:26;21.95;;;10.93;;
53263;SDS011;39153;52.680;6.172;2023-02-28T05:05:51;25.30;;;11.75;;
53263;SDS011;39153;52.680;6.172;2023-02-28T05:08:17;23.42;;;10.90;;
53263;SDS011;39153;52.680;6.172;2023-02-28T05:10:43;20.95;;;11.15;;
53263;SDS011;39153;52.680;6.172;2023-02-28T05:13:10;23.85;;;11.20;;
53263;SDS011;39153;52.680;6.172;2023-02-28T05:15:37;19.98;;;11.07;;
53263;SDS011;39153;52.680;6.172;2023-02-28T05:18:02;24.73;;;11.65;;
53263;SDS011;39153;52.680;6.172;2023-02-28T05:20:28;24.92;;;12.32;;
53263;SDS011;39153;52.680;6.172;2023-02-28T05:22:54;25.25;;;11.80;;
53263;SDS011;39153;52.680;6.172;2023-02-28T05:25:20;22.95;;;11.48;;
53263;SDS011;39153;52.680;6.172;2023-02-28T05:27:49;25.80;;;11.93;;
53263;SDS011;39153;52.680;6.172;2023-02-28T05:30:15;25.70;;;12.13;;
53263;SDS011;39153;52.680;6.172;2023-02-28T05:32:41;24.25;;;12.15;;
53263;SDS011;39153;52.680;6.172;2023-02-28T05:35:10;24.98;;;12.40;;
53263;SDS011;39153;52.680;6.172;2023-02-28T05:37:37;25.17;;;12.57;;
53263;SDS011;39153;52.680;6.172;2023-02-28T05:40:04;28.17;;;12.55;;
53263;SDS011;39153;52.680;6.172;2023-02-28T05:42:32;22.58;;;11.45;;
53263;SDS011;39153;52.680;6.172;2023-02-28T05:44:58;25.25;;;12.30;;
53263;SDS011;39153;52.680;6.172;2023-02-28T05:47:24;21.98;;;12.20;;
53263;SDS011;39153;52.680;6.172;2023-02-28T05:49:50;22.95;;;12.35;;
53263;SDS011;39153;52.680;6.172;2023-02-28T05:52:15;25.70;;;11.05;;
53263;SDS011;39153;52.680;6.172;2023-02-28T05:54:41;21.02;;;11.20;;
53263;SDS011;39153;52.680;6.172;2023-02-28T05:57:07;19.50;;;10.35;;
53263;SDS011;39153;52.680;6.172;2023-02-28T05:59:32;17.40;;;9.07;;
53263;SDS011;39153;52.680;6.172;2023-02-28T06:01:58;15.82;;;9.52;;
53263;SDS011;39153;52.680;6.172;2023-02-28T06:04:24;17.38;;;8.80;;
53263;SDS011;39153;52.680;6.172;2023-02-28T06:06:50;16.25;;;8.05;;
53263;SDS011;39153;52.680;6.172;2023-02-28T06:09:16;17.98;;;8.75;;
53263;SDS011;39153;52.680;6.172;2023-02-28T06:11:42;16.05;;;8.70;;
53263;SDS011;39153;52.680;6.172;2023-02-28T06:14:13;15.52;;;8.65;;
53263;SDS011;39153;52.680;6.172;2023-02-28T06:16:41;17.70;;;8.60;;
53263;SDS011;39153;52.680;6.172;2023-02-28T06:19:07;19.38;;;8.57;;
53263;SDS011;39153;52.680;6.172;2023-02-28T06:21:33;15.77;;;8.07;;
53263;SDS011;39153;52.680;6.172;2023-02-28T06:23:59;15.57;;;8.20;;
53263;SDS011;39153;52.680;6.172;2023-02-28T06:26:25;12.13;;;7.00;;
53263;SDS011;39153;52.680;6.172;2023-02-28T06:28:51;14.90;;;7.40;;
53263;SDS011;39153;52.680;6.172;2023-02-28T06:31:17;15.48;;;6.90;;
53263;SDS011;39153;52.680;6.172;2023-02-28T06:33:43;16.70;;;7.38;;
53263;SDS011;39153;52.680;6.172;2023-02-28T06:36:11;15.88;;;7.03;;
53263;SDS011;39153;52.680;6.172;2023-02-28T06:38:38;12.02;;;5.60;;
53263;SDS011;39153;52.680;6.172;2023-02-28T06:41:04;10.68;;;5.85;;
53263;SDS011;39153;52.680;6.172;2023-02-28T06:43:32;10.57;;;5.50;;
53263;SDS011;39153;52.680;6.172;2023-02-28T06:46:01;9.20;;;4.60;;
53263;SDS011;39153;52.680;6.172;2023-02-28T06:48:28;9.90;;;4.97;;
53263;SDS011;39153;52.680;6.172;2023-02-28T06:51:07;9.82;;;5.00;;
53263;SDS011;39153;52.680;6.172;2023-02-28T06:53:35;11.43;;;5.43;;
53263;SDS011;39153;52.680;6.172;2023-02-28T06:56:05;10.18;;;5.22;;
53263;SDS011;39153;52.680;6.172;2023-02-28T06:58:32;9.95;;;4.90;;
53263;SDS011;39153;52.680;6.172;2023-02-28T07:00:58;11.48;;;5.00;;
53263;SDS011;39153;52.680;6.172;2023-02-28T07:03:24;9.00;;;5.00;;
53263;SDS011;39153;52.680;6.172;2023-02-28T07:05:49;10.73;;;5.40;;
53263;SDS011;39153;52.680;6.172;2023-02-28T07:08:16;10.45;;;4.93;;
53263;SDS011;39153;52.680;6.172;2023-02-28T07:10:42;10.88;;;5.40;;
53263;SDS011;39153;52.680;6.172;2023-02-28T07:13:08;12.32;;;5.72;;
53263;SDS011;39153;52.680;6.172;2023-02-28T07:15:35;12.85;;;5.30;;
53263;SDS011;39153;52.680;6.172;2023-02-28T07:18:01;9.50;;;5.78;;
53263;SDS011;39153;52.680;6.172;2023-02-28T07:20:28;10.70;;;5.70;;
53263;SDS011;39153;52.680;6.172;2023-02-28T07:22:54;10.27;;;5.65;;
53263;SDS011;39153;52.680;6.172;2023-02-28T07:25:25;11.93;;;5.70;;
53263;SDS011;39153;52.680;6.172;2023-02-28T07:27:53;12.38;;;5.65;;
53263;SDS011;39153;52.680;6.172;2023-02-28T07:30:19;9.85;;;5.45;;
53263;SDS011;39153;52.680;6.172;2023-02-28T07:32:45;52.78;;;18.48;;
53263;SDS011;39153;52.680;6.172;2023-02-28T07:35:11;124.03;;;37.47;;
53263;SDS011;39153;52.680;6.172;2023-02-28T07:37:37;119.65;;;36.33;;
53263;SDS011;39153;52.680;6.172;2023-02-28T07:40:04;88.82;;;29.38;;
53263;SDS011;39153;52.680;6.172;2023-02-28T07:42:33;111.35;;;33.20;;
53263;SDS011;39153;52.680;6.172;2023-02-28T07:44:59;101.07;;;33.75;;
53263;SDS011;39153;52.680;6.172;2023-02-28T07:47:25;88.45;;;31.42;;
53263;SDS011;39153;52.680;6.172;2023-02-28T07:49:51;81.75;;;28.25;;
53263;SDS011;39153;52.680;6.172;2023-02-28T07:52:17;69.82;;;25.13;;
53263;SDS011;39153;52.680;6.172;2023-02-28T07:54:43;38.58;;;17.58;;
53263;SDS011;39153;52.680;6.172;2023-02-28T07:57:08;38.00;;;15.75;;
53263;SDS011;39153;52.680;6.172;2023-02-28T07:59:34;29.73;;;14.18;;
53263;SDS011;39153;52.680;6.172;2023-02-28T08:02:00;25.45;;;12.48;;
53263;SDS011;39153;52.680;6.172;2023-02-28T08:04:26;22.38;;;12.23;;
53263;SDS011;39153;52.680;6.172;2023-02-28T08:06:51;25.67;;;11.73;;
53263;SDS011;39153;52.680;6.172;2023-02-28T08:09:18;27.30;;;11.95;;
53263;SDS011;39153;52.680;6.172;2023-02-28T08:11:44;25.35;;;11.88;;
53263;SDS011;39153;52.680;6.172;2023-02-28T08:14:10;23.15;;;11.32;;
53263;SDS011;39153;52.680;6.172;2023-02-28T08:16:35;24.90;;;11.65;;
53263;SDS011;39153;52.680;6.172;2023-02-28T08:19:02;21.88;;;11.75;;
53263;SDS011;39153;52.680;6.172;2023-02-28T08:21:27;22.92;;;11.55;;
53263;SDS011;39153;52.680;6.172;2023-02-28T08:23:53;21.85;;;10.93;;
53263;SDS011;39153;52.680;6.172;2023-02-28T08:26:19;21.38;;;10.95;;
53263;SDS011;39153;52.680;6.172;2023-02-28T08:28:45;21.00;;;10.73;;
53263;SDS011;39153;52.680;6.172;2023-02-28T08:31:12;22.58;;;11.90;;
53263;SDS011;39153;52.680;6.172;2023-02-28T08:33:39;24.02;;;10.95;;
53263;SDS011;39153;52.680;6.172;2023-02-28T08:36:06;26.90;;;12.00;;
53263;SDS011;39153;52.680;6.172;2023-02-28T08:38:33;22.33;;;11.70;;
53263;SDS011;39153;52.680;6.172;2023-02-28T08:41:00;22.10;;;11.35;;
53263;SDS011;39153;52.680;6.172;2023-02-28T08:43:28;26.17;;;12.43;;
53263;SDS011;39153;52.680;6.172;2023-02-28T08:45:54;24.63;;;12.73;;
53263;SDS011;39153;52.680;6.172;2023-02-28T08:48:22;25.60;;;12.95;;
53263;SDS011;39153;52.680;6.172;2023-02-28T08:50:55;31.35;;;14.45;;
53263;SDS011;39153;52.680;6.172;2023-02-28T08:53:25;27.73;;;14.55;;
53263;SDS011;39153;52.680;6.172;2023-02-28T08:55:55;41.85;;;18.17;;
53263;SDS011;39153;52.680;6.172;2023-02-28T08:58:25;29.38;;;14.10;;
53263;SDS011;39153;52.680;6.172;2023-02-28T09:00:52;38.80;;;15.88;;
53263;SDS011;39153;52.680;6.172;2023-02-28T09:03:18;31.88;;;15.40;;
53263;SDS011;39153;52.680;6.172;2023-02-28T09:05:56;38.05;;;15.65;;
53263;SDS011;39153;52.680;6.172;2023-02-28T09:08:24;36.20;;;14.02;;
53263;SDS011;39153;52.680;6.172;2023-02-28T09:10:51;14.63;;;6.85;;
53263;SDS011;39153;52.680;6.172;2023-02-28T09:13:17;13.05;;;6.82;;
53263;SDS011;39153;52.680;6.172;2023-02-28T09:15:43;15.43;;;6.18;;
53263;SDS011;39153;52.680;6.172;2023-02-28T09:18:10;9.85;;;5.32;;
53263;SDS011;39153;52.680;6.172;2023-02-28T09:20:39;10.48;;;5.15;;
53263;SDS011;39153;52.680;6.172;2023-02-28T09:23:09;8.70;;;4.72;;
53263;SDS011;39153;52.680;6.172;2023-02-28T09:25:36;8.60;;;4.40;;
53263;SDS011;39153;52.680;6.172;2023-02-28T09:28:03;7.70;;;4.35;;
53263;SDS011;39153;52.680;6.172;2023-02-28T09:30:30;6.75;;;4.03;;
53263;SDS011;39153;52.680;6.172;2023-02-28T09:32:55;8.35;;;4.05;;
53263;SDS011;39153;52.680;6.172;2023-02-28T09:35:22;7.97;;;4.57;;
53263;SDS011;39153;52.680;6.172;2023-02-28T09:37:49;8.18;;;4.43;;
53263;SDS011;39153;52.680;6.172;2023-02-28T09:40:17;9.82;;;4.53;;
53263;SDS011;39153;52.680;6.172;2023-02-28T09:42:48;8.50;;;3.72;;
53263;SDS011;39153;52.680;6.172;2023-02-28T09:45:19;7.45;;;4.03;;
53263;SDS011;39153;52.680;6.172;2023-02-28T09:47:54;8.05;;;3.40;;
53263;SDS011;39153;52.680;6.172;2023-02-28T09:52:56;6.20;;;3.05;;
53263;SDS011;39153;52.680;6.172;2023-02-28T09:57:55;5.22;;;2.88;;
53263;SDS011;39153;52.680;6.172;2023-02-28T10:00:28;5.25;;;2.80;;
53263;SDS011;39153;52.680;6.172;2023-02-28T10:03:15;10.45;;;3.40;;
53263;SDS011;39153;52.680;6.172;2023-02-28T10:08:50;7.25;;;3.50;;
53263;SDS011;39153;52.680;6.172;2023-02-28T10:11:38;5.40;;;3.35;;
53263;SDS011;39153;52.680;6.172;2023-02-28T10:16:40;6.68;;;3.15;;
53263;SDS011;39153;52.680;6.172;2023-02-28T10:19:17;8.55;;;3.33;;
53263;SDS011;39153;52.680;6.172;2023-02-28T10:24:20;7.10;;;3.38;;
53263;SDS011;39153;52.680;6.172;2023-02-28T10:27:06;5.43;;;3.10;;
53263;SDS011;39153;52.680;6.172;2023-02-28T10:29:45;5.97;;;3.88;;
53263;SDS011;39153;52.680;6.172;2023-02-28T10:32:14;7.68;;;3.83;;
53263;SDS011;39153;52.680;6.172;2023-02-28T10:34:42;5.82;;;3.88;;
53263;SDS011;39153;52.680;6.172;2023-02-28T10:37:08;6.10;;;3.35;;
53263;SDS011;39153;52.680;6.172;2023-02-28T10:45:06;4.38;;;2.42;;
53263;SDS011;39153;52.680;6.172;2023-02-28T10:47:56;8.02;;;2.80;;
53263;SDS011;39153;52.680;6.172;2023-02-28T10:50:28;6.00;;;2.40;;
53263;SDS011;39153;52.680;6.172;2023-02-28T10:53:45;6.50;;;2.55;;
53263;SDS011;39153;52.680;6.172;2023-02-28T10:55:59;5.93;;;2.63;;
53263;SDS011;39153;52.680;6.172;2023-02-28T11:00:54;4.82;;;2.20;;
53263;SDS011;39153;52.680;6.172;2023-02-28T11:05:57;4.03;;;1.90;;
53263;SDS011;39153;52.680;6.172;2023-02-28T11:08:24;4.35;;;1.90;;
53263;SDS011;39153;52.680;6.172;2023-02-28T11:10:54;4.53;;;1.98;;
53263;SDS011;39153;52.680;6.172;2023-02-28T11:13:27;5.45;;;2.15;;
53263;SDS011;39153;52.680;6.172;2023-02-28T11:15:59;4.97;;;2.42;;
53263;SDS011;39153;52.680;6.172;2023-02-28T11:18:29;4.32;;;1.75;;
53263;SDS011;39153;52.680;6.172;2023-02-28T11:21:05;8.02;;;1.73;;
53263;SDS011;39153;52.680;6.172;2023-02-28T11:23:32;4.25;;;1.70;;
53263;SDS011;39153;52.680;6.172;2023-02-28T11:26:02;3.83;;;1.88;;
53263;SDS011;39153;52.680;6.172;2023-02-28T11:28:31;4.57;;;1.83;;
53263;SDS011;39153;52.680;6.172;2023-02-28T11:31:19;3.85;;;1.70;;
53263;SDS011;39153;52.680;6.172;2023-02-28T11:33:50;3.70;;;1.73;;
53263;SDS011;39153;52.680;6.172;2023-02-28T11:36:19;4.40;;;1.80;;
53263;SDS011;39153;52.680;6.172;2023-02-28T11:38:54;4.47;;;1.77;;
53263;SDS011;39153;52.680;6.172;2023-02-28T11:41:26;4.47;;;1.95;;
53263;SDS011;39153;52.680;6.172;2023-02-28T11:47:47;3.70;;;1.80;;
53263;SDS011;39153;52.680;6.172;2023-02-28T11:50:18;4.77;;;2.13;;
53263;SDS011;39153;52.680;6.172;2023-02-28T11:52:56;4.25;;;1.77;;
53263;SDS011;39153;52.680;6.172;2023-02-28T11:55:36;4.70;;;1.90;;
53263;SDS011;39153;52.680;6.172;2023-02-28T11:58:17;3.20;;;1.73;;
53263;SDS011;39153;52.680;6.172;2023-02-28T12:00:53;4.77;;;1.77;;
53263;SDS011;39153;52.680;6.172;2023-02-28T12:12:25;3.40;;;1.67;;
53263;SDS011;39153;52.680;6.172;2023-02-28T12:28:48;4.13;;;1.75;;
53263;SDS011;39153;52.680;6.172;2023-02-28T12:31:21;4.65;;;1.90;;
53263;SDS011;39153;52.680;6.172;2023-02-28T12:33:52;4.90;;;2.10;;
53263;SDS011;39153;52.680;6.172;2023-02-28T12:36:20;4.63;;;2.15;;
53263;SDS011;39153;52.680;6.172;2023-02-28T12:38:53;4.60;;;2.13;;
53263;SDS011;39153;52.680;6.172;2023-02-28T12:44:11;6.68;;;1.88;;
53263;SDS011;39153;52.680;6.172;2023-02-28T12:46:44;2.92;;;1.40;;
53263;SDS011;39153;52.680;6.172;2023-02-28T12:51:56;3.47;;;1.30;;
53263;SDS011;39153;52.680;6.172;2023-02-28T12:57:41;3.85;;;1.50;;
53263;SDS011;39153;52.680;6.172;2023-02-28T13:00:12;3.63;;;1.65;;
53263;SDS011;39153;52.680;6.172;2023-02-28T13:08:36;3.53;;;1.40;;
53263;SDS011;39153;52.680;6.172;2023-02-28T13:11:59;4.82;;;1.63;;
53263;SDS011;39153;52.680;6.172;2023-02-28T13:14:37;4.15;;;1.50;;
53263;SDS011;39153;52.680;6.172;2023-02-28T13:17:10;3.78;;;1.60;;
53263;SDS011;39153;52.680;6.172;2023-02-28T13:19:43;3.15;;;1.50;;
53263;SDS011;39153;52.680;6.172;2023-02-28T13:25:00;5.40;;;1.80;;
53263;SDS011;39153;52.680;6.172;2023-02-28T13:27:36;4.15;;;1.50;;
53263;SDS011;39153;52.680;6.172;2023-02-28T13:33:30;4.22;;;1.58;;
53263;SDS011;39153;52.680;6.172;2023-02-28T13:36:06;3.42;;;1.77;;
53263;SDS011;39153;52.680;6.172;2023-02-28T13:38:38;3.45;;;1.60;;
53263;SDS011;39153;52.680;6.172;2023-02-28T13:49:31;4.22;;;1.70;;
53263;SDS011;39153;52.680;6.172;2023-02-28T13:57:28;4.07;;;1.73;;
53263;SDS011;39153;52.680;6.172;2023-02-28T14:00:21;4.47;;;1.83;;
53263;SDS011;39153;52.680;6.172;2023-02-28T14:05:44;4.78;;;2.10;;
53263;SDS011;39153;52.680;6.172;2023-02-28T14:08:16;5.25;;;2.63;;
53263;SDS011;39153;52.680;6.172;2023-02-28T14:10:46;4.57;;;2.38;;
53263;SDS011;39153;52.680;6.172;2023-02-28T14:18:34;3.15;;;1.60;;
53263;SDS011;39153;52.680;6.172;2023-02-28T14:21:35;4.40;;;1.67;;
53263;SDS011;39153;52.680;6.172;2023-02-28T14:26:49;4.20;;;1.95;;
53263;SDS011;39153;52.680;6.172;2023-02-28T14:35:18;5.97;;;2.20;;
53263;SDS011;39153;52.680;6.172;2023-02-28T14:37:45;4.20;;;2.00;;
53263;SDS011;39153;52.680;6.172;2023-02-28T14:40:21;4.25;;;2.00;;
53263;SDS011;39153;52.680;6.172;2023-02-28T14:42:56;3.97;;;2.08;;
53263;SDS011;39153;52.680;6.172;2023-02-28T14:45:42;4.97;;;2.05;;
53263;SDS011;39153;52.680;6.172;2023-02-28T14:48:09;4.78;;;2.05;;
53263;SDS011;39153;52.680;6.172;2023-02-28T14:50:36;5.38;;;1.80;;
53263;SDS011;39153;52.680;6.172;2023-02-28T14:53:02;4.38;;;2.15;;
53263;SDS011;39153;52.680;6.172;2023-02-28T14:55:30;4.15;;;2.00;;
53263;SDS011;39153;52.680;6.172;2023-02-28T14:58:02;5.45;;;2.42;;
53263;SDS011;39153;52.680;6.172;2023-02-28T15:00:47;4.63;;;2.45;;
53263;SDS011;39153;52.680;6.172;2023-02-28T15:03:20;4.35;;;2.30;;
53263;SDS011;39153;52.680;6.172;2023-02-28T15:06:13;3.53;;;2.03;;
53263;SDS011;39153;52.680;6.172;2023-02-28T15:08:42;4.88;;;2.10;;
53263;SDS011;39153;52.680;6.172;2023-02-28T15:11:18;3.85;;;1.90;;
53263;SDS011;39153;52.680;6.172;2023-02-28T15:13:51;3.75;;;2.10;;
53263;SDS011;39153;52.680;6.172;2023-02-28T15:16:21;4.00;;;2.00;;
53263;SDS011;39153;52.680;6.172;2023-02-28T15:19:04;6.72;;;2.13;;
53263;SDS011;39153;52.680;6.172;2023-02-28T15:21:41;3.28;;;1.70;;
53263;SDS011;39153;52.680;6.172;2023-02-28T15:24:23;5.30;;;2.10;;
53263;SDS011;39153;52.680;6.172;2023-02-28T15:27:03;4.50;;;2.10;;
53263;SDS011;39153;52.680;6.172;2023-02-28T15:29:34;3.92;;;1.80;;
53263;SDS011;39153;52.680;6.172;2023-02-28T15:32:21;3.70;;;1.90;;
53263;SDS011;39153;52.680;6.172;2023-02-28T15:34:50;5.05;;;1.85;;
53263;SDS011;39153;52.680;6.172;2023-02-28T15:37:30;5.50;;;2.05;;
53263;SDS011;39153;52.680;6.172;2023-02-28T15:43:02;3.53;;;2.10;;
53263;SDS011;39153;52.680;6.172;2023-02-28T15:45:52;4.72;;;2.20;;
53263;SDS011;39153;52.680;6.172;2023-02-28T15:48:22;4.65;;;1.88;;
53263;SDS011;39153;52.680;6.172;2023-02-28T15:50:54;4.88;;;2.38;;
53263;SDS011;39153;52.680;6.172;2023-02-28T15:53:27;5.50;;;2.35;;
53263;SDS011;39153;52.680;6.172;2023-02-28T15:56:00;3.60;;;2.03;;
53263;SDS011;39153;52.680;6.172;2023-02-28T15:58:28;4.63;;;2.10;;
53263;SDS011;39153;52.680;6.172;2023-02-28T16:01:03;6.15;;;2.50;;
53263;SDS011;39153;52.680;6.172;2023-02-28T16:03:43;4.45;;;2.35;;
53263;SDS011;39153;52.680;6.172;2023-02-28T16:09:14;5.35;;;2.28;;
53263;SDS011;39153;52.680;6.172;2023-02-28T16:11:45;4.63;;;2.65;;
53263;SDS011;39153;52.680;6.172;2023-02-28T16:14:15;5.03;;;2.63;;
53263;SDS011;39153;52.680;6.172;2023-02-28T16:16:46;4.53;;;2.40;;
53263;SDS011;39153;52.680;6.172;2023-02-28T16:19:14;5.30;;;2.50;;
53263;SDS011;39153;52.680;6.172;2023-02-28T16:21:40;5.78;;;2.65;;
53263;SDS011;39153;52.680;6.172;2023-02-28T16:24:06;6.25;;;2.40;;
53263;SDS011;39153;52.680;6.172;2023-02-28T16:26:32;4.18;;;2.58;;
53263;SDS011;39153;52.680;6.172;2023-02-28T16:28:59;6.35;;;2.95;;
53263;SDS011;39153;52.680;6.172;2023-02-28T16:31:26;4.53;;;2.60;;
53263;SDS011;39153;52.680;6.172;2023-02-28T16:33:52;5.82;;;2.70;;
53263;SDS011;39153;52.680;6.172;2023-02-28T16:36:22;5.78;;;2.63;;
53263;SDS011;39153;52.680;6.172;2023-02-28T16:38:53;5.28;;;2.75;;
53263;SDS011;39153;52.680;6.172;2023-02-28T16:41:24;4.43;;;2.67;;
53263;SDS011;39153;52.680;6.172;2023-02-28T16:43:52;5.43;;;2.78;;
53263;SDS011;39153;52.680;6.172;2023-02-28T16:46:23;4.95;;;2.88;;
53263;SDS011;39153;52.680;6.172;2023-02-28T16:48:52;5.82;;;2.65;;
53263;SDS011;39153;52.680;6.172;2023-02-28T16:51:17;4.60;;;2.70;;
53263;SDS011;39153;52.680;6.172;2023-02-28T16:53:44;7.30;;;3.53;;
53263;SDS011;39153;52.680;6.172;2023-02-28T16:56:13;6.72;;;3.72;;
53263;SDS011;39153;52.680;6.172;2023-02-28T16:58:44;8.07;;;3.40;;
53263;SDS011;39153;52.680;6.172;2023-02-28T17:01:11;7.75;;;3.80;;
53263;SDS011;39153;52.680;6.172;2023-02-28T17:03:37;6.43;;;4.03;;
53263;SDS011;39153;52.680;6.172;2023-02-28T17:06:05;7.90;;;4.13;;
53263;SDS011;39153;52.680;6.172;2023-02-28T17:08:43;8.70;;;4.50;;
53263;SDS011;39153;52.680;6.172;2023-02-28T17:11:09;6.85;;;4.10;;
53263;SDS011;39153;52.680;6.172;2023-02-28T17:13:35;9.13;;;4.28;;
53263;SDS011;39153;52.680;6.172;2023-02-28T17:16:00;8.27;;;4.32;;
53263;SDS011;39153;52.680;6.172;2023-02-28T17:18:27;7.45;;;4.20;;
53263;SDS011;39153;52.680;6.172;2023-02-28T17:20:58;7.88;;;4.38;;
53263;SDS011;39153;52.680;6.172;2023-02-28T17:23:25;6.93;;;4.75;;